Axiom Aviation Tuition Reimbursement Program 2017-01-13T21:48:34+00:00

Axiom Aviation Tuition Reimbursement

Axiom Aviation is proud to announce our personalized Airline Tuition Reimbursement Program! The program is simple, just follow the steps listed below.

Up to $5,000 in Tuition Reimbursement!

  1. Complete all of your flight training (from Private Pilot through Commercial Pilot and CFI) with Axiom Aviation’s Premium Training Program.
  2. Accept our guaranteed flight instructor program upon completion of your CFI certificate.
  3. Provide the same excellent flight instruction to your students that you received as a student.
  4. Upon reaching 300 hours of Flight Instruction Given (Dual) you will begin to receive bonuses in each paycheck to help reimburse the costs of your flight training!
  5. The reimbursement program can repay students training up to $5,000!

If you want to be appreciated for the awesome work that you do as a flight instructor at Axiom Aviation, and if you are interested in making a career of flying then why not do it while receiving $5,000 tuition reimbursement payments!

Call us for more details and to get signed up today!
(262) AX-PILOT

Your Name (required)

Your Email (required)

Your Message

Login

Current METAR

KOGD 172253Z 29004KT 10SM BKN075 01/M07 A3020 RMK AO2 SLP242 T00111067